Datum Uhrzeit Temperatur Luft Windgeschw. Regen Regen (1h) Temp (1h) Luftdruck Windrichtung Taupunkt Sensor
2018-08-15 05:26:00 15.6 86.0 0.0 0.0 0.0 0.3 13.3 Kombisensor
2018-08-15 05:19:00 15.5 85.0 0.0 0.0 0.0 0.2 13.0 Kombisensor
2018-08-15 05:16:00 15.4 85.0 0.0 0.0 0.0 0.0 12.9 Kombisensor
2018-08-15 05:06:00 15.5 85.0 0.0 0.0 0.0 0.1 13.0 Kombisensor
2018-08-15 04:58:00 15.4 85.0 0.0 0.0 0.0 0.0 12.9 Kombisensor
2018-08-15 04:51:00 15.3 85.0 0.0 0.0 0.0 -0.1 12.8 Kombisensor
2018-08-15 04:30:00 15.2 85.0 0.0 0.0 0.0 -0.3 12.7 Kombisensor
2018-08-15 04:28:00 15.3 85.0 0.0 0.0 0.0 -0.2 12.8 Kombisensor
2018-08-15 04:18:00 15.3 84.0 0.0 0.0 0.0 -0.2 12.6 Kombisensor
2018-08-15 04:13:00 15.4 84.0 0.0 0.0 0.0 -0.1 12.7 Kombisensor
2018-08-15 04:10:00 15.3 84.0 0.0 0.0 0.0 -0.2 12.6 Kombisensor
2018-08-15 03:57:00 15.4 84.0 0.0 0.0 0.0 -0.2 12.7 Kombisensor
2018-08-15 03:50:00 15.4 83.0 0.0 0.0 0.0 -0.3 12.5 Kombisensor
2018-08-15 03:01:00 15.5 83.0 0.0 0.0 0.0 -0.6 12.6 Kombisensor
2018-08-15 02:59:00 15.6 83.0 0.0 0.0 0.0 -0.5 12.7 Kombisensor
2018-08-15 02:51:00 15.6 82.0 0.0 0.0 0.0 -0.7 12.5 Kombisensor
2018-08-15 02:41:00 15.7 82.0 0.0 0.0 0.0 -0.7 12.6 Kombisensor
2018-08-15 02:33:00 15.8 83.0 0.0 0.0 0.0 -0.6 12.9 Kombisensor
2018-08-15 02:28:00 15.9 83.0 0.0 0.0 0.0 -0.6 13.0 Kombisensor
2018-08-15 02:23:00 16.0 83.0 0.0 0.0 0.0 -0.5 13.1 Kombisensor
2018-08-15 02:21:00 16.0 82.0 0.0 0.0 0.0 -0.6 12.9 Kombisensor
2018-08-15 02:18:00 16.0 83.0 0.0 0.0 0.0 -0.6 13.1 Kombisensor
2018-08-15 02:06:00 16.0 82.0 0.0 0.0 0.0 -0.7 12.9 Kombisensor
2018-08-15 02:00:00 16.1 83.0 0.0 0.0 0.0 -0.5 13.2 Kombisensor
2018-08-15 01:53:00 16.2 83.0 0.0 0.0 0.0 -0.4 13.3 Kombisensor
2018-08-15 01:45:00 16.3 83.0 0.0 0.0 0.0 -0.3 13.4 Kombisensor
2018-08-15 01:30:00 16.4 83.0 0.0 0.0 0.0 -0.3 13.5 Kombisensor
2018-08-15 01:22:00 16.5 83.0 0.0 0.0 0.0 0.6 13.6 Kombisensor
2018-08-15 01:15:00 16.6 83.0 0.0 0.0 0.0 1.0 13.7 Kombisensor
2018-08-15 01:10:00 16.6 84.0 0.0 0.0 0.0 1.0 13.9 Kombisensor
2018-08-15 01:05:00 16.7 84.0 0.0 0.0 0.0 1.1 14.0 Kombisensor
2018-08-15 00:47:00 16.6 84.0 0.0 0.0 0.0 0.0 13.9 Kombisensor
2018-08-15 00:34:00 16.6 85.0 0.0 0.0 0.0 -0.1 14.1 Kombisensor
2018-08-15 00:24:00 16.7 85.0 0.0 0.0 0.0 -0.3 14.2 Kombisensor